createdAt,value
2022-09-04T00:00:10.690Z,10.80
2022-09-04T00:02:51.788Z,11.14
2022-09-04T00:05:27.515Z,10.78
2022-09-04T00:08:13.724Z,11.16
2022-09-04T00:10:51.808Z,11.42
2022-09-04T00:13:28.016Z,11.27
2022-09-04T00:16:03.789Z,11.59
2022-09-04T00:18:34.665Z,11.68
2022-09-04T00:21:12.396Z,11.78
2022-09-04T00:23:49.705Z,11.80
2022-09-04T00:26:30.419Z,11.82
2022-09-04T00:29:05.586Z,12.06
2022-09-04T00:31:39.203Z,12.11
2022-09-04T00:34:20.844Z,12.23
2022-09-04T00:36:55.044Z,12.28
2022-09-04T00:39:30.418Z,12.33
2022-09-04T00:42:15.030Z,12.47
2022-09-04T00:45:00.764Z,12.55
2022-09-04T00:48:14.572Z,12.47
2022-09-04T00:51:16.421Z,12.69
2022-09-04T00:54:11.254Z,12.51
2022-09-04T00:57:14.378Z,12.67
2022-09-04T01:00:11.414Z,12.87
2022-09-04T01:03:09.940Z,12.71
2022-09-04T01:05:49.284Z,12.97
2022-09-04T01:08:35.514Z,12.91
2022-09-04T01:11:16.348Z,12.99
2022-09-04T01:13:52.965Z,12.59
2022-09-04T01:16:28.432Z,12.82
2022-09-04T01:19:05.230Z,12.86
2022-09-04T01:21:57.693Z,12.93
2022-09-04T01:24:57.907Z,13.12
2022-09-04T01:27:32.054Z,12.88
2022-09-04T01:30:08.525Z,13.09
2022-09-04T01:33:05.023Z,13.23
2022-09-04T01:35:41.322Z,13.11
2022-09-04T01:38:18.174Z,13.28
2022-09-04T01:40:51.648Z,13.25
2022-09-04T01:43:23.936Z,13.33
2022-09-04T01:46:20.813Z,13.35
2022-09-04T01:48:59.137Z,13.40
2022-09-04T01:51:39.790Z,13.30
2022-09-04T01:54:22.155Z,13.48
2022-09-04T01:57:06.240Z,13.54
2022-09-04T01:59:46.137Z,13.17
2022-09-04T12:07:06.157Z,22.11
2022-09-04T12:09:56.954Z,21.41
2022-09-04T12:13:16.229Z,21.61
2022-09-04T12:16:46.411Z,21.62
2022-09-04T12:19:56.984Z,21.59
2022-09-04T12:22:58.818Z,21.41
2022-09-04T12:25:53.865Z,21.20
2022-09-04T12:29:04.344Z,20.99
2022-09-04T12:32:21.585Z,21.08
2022-09-04T12:35:31.635Z,21.09
2022-09-04T12:38:38.404Z,20.89
2022-09-04T12:41:12.268Z,20.89
2022-09-04T12:43:57.436Z,21.02
2022-09-04T12:46:36.240Z,20.95
2022-09-04T12:52:27.195Z,20.15
2022-09-04T12:55:12.354Z,19.67
2022-09-04T12:57:52.198Z,19.89
2022-09-04T13:00:40.929Z,18.65
2022-09-04T13:03:56.424Z,19.56
2022-09-04T13:06:53.331Z,18.49
2022-09-04T13:09:34.385Z,18.80
2022-09-04T13:12:26.794Z,18.73
2022-09-04T13:15:24.913Z,18.04
2022-09-04T13:18:08.085Z,18.47
2022-09-04T13:20:47.850Z,18.34
2022-09-04T13:23:37.014Z,18.88
2022-09-04T13:26:24.777Z,18.74
2022-09-04T13:29:05.129Z,18.67
2022-09-04T13:31:49.015Z,18.47
2022-09-04T13:34:29.567Z,18.47
2022-09-04T13:37:09.059Z,18.38
2022-09-04T13:40:08.993Z,18.26
2022-09-04T13:43:01.683Z,17.96
2022-09-04T13:45:40.065Z,17.97
2022-09-04T13:48:39.453Z,18.04
2022-09-04T13:51:50.995Z,17.48
2022-09-04T13:54:26.357Z,17.23
2022-09-04T13:57:05.333Z,17.37
2022-09-04T13:59:34.994Z,17.51
2022-09-04T14:02:13.739Z,17.38
2022-09-04T14:04:49.469Z,16.99
2022-09-04T14:07:26.512Z,16.55
2022-09-04T14:10:07.575Z,16.62
2022-09-04T14:12:53.859Z,16.81
2022-09-04T14:16:00.769Z,17.01
2022-09-04T14:18:46.186Z,16.68
2022-09-04T14:21:52.092Z,16.80
2022-09-04T14:24:33.678Z,16.61
2022-09-04T14:27:27.295Z,16.04
2022-09-04T14:30:06.728Z,16.52
2022-09-04T14:32:50.214Z,15.85
2022-09-04T14:35:44.380Z,15.23
2022-09-04T14:39:12.231Z,15.24
2022-09-04T14:42:16.711Z,15.66
2022-09-04T14:48:35.682Z,16.17
2022-09-04T14:52:02.154Z,15.09
2022-09-04T14:54:43.255Z,16.02
2022-09-04T14:57:22.487Z,14.98
2022-09-04T15:00:06.685Z,15.12
2022-09-04T15:02:51.216Z,14.91
2022-09-04T15:05:27.045Z,15.76
2022-09-04T15:08:15.657Z,14.47
2022-09-04T15:10:55.652Z,15.76
2022-09-04T15:13:44.839Z,15.64
2022-09-04T15:16:24.448Z,15.70
2022-09-04T15:19:36.178Z,15.66
2022-09-04T15:22:24.352Z,15.60
2022-09-04T15:25:01.535Z,15.23
2022-09-04T15:27:48.280Z,14.96
2022-09-04T15:30:23.984Z,15.46
2022-09-04T15:33:07.307Z,15.41
2022-09-04T15:35:38.400Z,15.23
2022-09-04T15:38:21.255Z,15.33
2022-09-04T15:41:18.179Z,15.17
2022-09-04T15:43:50.619Z,14.62
2022-09-04T15:46:32.331Z,14.47
2022-09-04T15:49:17.760Z,14.81
2022-09-04T15:51:54.075Z,15.06
2022-09-04T15:54:55.946Z,15.03
2022-09-04T15:57:36.500Z,14.81
2022-09-04T16:00:12.010Z,14.19
2022-09-04T16:02:55.359Z,14.08
2022-09-04T16:05:30.045Z,13.80
2022-09-04T16:08:05.381Z,14.57
2022-09-04T16:10:48.798Z,14.80
2022-09-04T16:13:42.613Z,13.71
2022-09-04T16:16:16.520Z,13.89
2022-09-04T16:19:03.590Z,14.44
2022-09-04T16:21:51.270Z,13.92
2022-09-04T16:24:27.059Z,14.38
2022-09-04T16:26:58.336Z,14.35
2022-09-04T16:29:37.820Z,14.33
2022-09-04T16:32:23.059Z,14.52
2022-09-04T16:34:58.686Z,13.94
2022-09-04T16:37:33.590Z,14.42
2022-09-04T16:40:14.463Z,13.69
2022-09-04T16:42:51.797Z,14.07
2022-09-04T16:45:26.812Z,13.40
2022-09-04T16:48:14.498Z,13.36
2022-09-04T16:51:09.866Z,14.24
2022-09-04T16:54:05.785Z,14.19
2022-09-04T16:56:42.034Z,14.15
2022-09-04T16:59:26.894Z,13.69
2022-09-04T17:02:09.333Z,13.80
2022-09-04T17:04:42.443Z,13.65
2022-09-04T17:07:22.434Z,13.28
2022-09-04T17:10:02.224Z,13.68
2022-09-04T17:12:47.631Z,13.80
2022-09-04T17:15:25.707Z,13.71
2022-09-04T17:17:57.612Z,13.26
2022-09-04T17:20:55.030Z,13.61
2022-09-04T17:28:58.636Z,13.17
2022-09-04T17:29:11.750Z,13.42
2022-09-04T17:29:34.627Z,13.48
2022-09-04T17:32:41.118Z,12.71
2022-09-04T17:40:38.802Z,13.26
2022-09-04T17:40:53.607Z,12.92
2022-09-04T17:41:39.904Z,13.25
2022-09-04T17:44:29.886Z,12.22
2022-09-04T17:47:13.688Z,13.15
2022-09-04T17:49:47.647Z,12.97
2022-09-04T17:52:27.377Z,13.06
2022-09-04T17:55:01.207Z,12.57
2022-09-04T17:57:39.905Z,12.30
2022-09-04T18:00:11.476Z,12.91
2022-09-04T18:02:46.492Z,12.87
2022-09-04T18:05:22.645Z,12.82
2022-09-04T18:08:09.510Z,12.20
2022-09-04T18:10:54.342Z,12.25
2022-09-04T18:13:37.886Z,11.72
2022-09-04T18:16:21.214Z,12.64
2022-09-04T18:18:54.040Z,12.61
2022-09-04T18:21:27.130Z,12.26
2022-09-04T18:24:04.037Z,12.56
2022-09-04T18:26:41.465Z,12.54
2022-09-04T18:32:55.606Z,12.49
2022-09-04T18:37:07.238Z,12.44
2022-09-04T18:37:19.121Z,11.90
2022-09-04T18:39:08.152Z,12.13
2022-09-04T18:50:25.474Z,11.99
2022-09-04T18:50:32.003Z,11.91
2022-09-04T18:50:46.366Z,12.24
2022-09-04T18:51:19.526Z,12.18
2022-09-04T18:53:53.192Z,12.14
2022-09-04T18:56:28.181Z,11.83
2022-09-04T18:59:06.163Z,11.82
2022-09-04T19:01:43.750Z,12.09
2022-09-04T19:04:43.885Z,12.06
2022-09-04T19:07:28.069Z,12.04
2022-09-04T19:10:13.799Z,11.18
2022-09-04T19:12:59.302Z,11.94
2022-09-04T19:15:36.713Z,11.89
2022-09-04T19:18:20.902Z,11.86
2022-09-04T19:20:54.571Z,11.26
2022-09-04T19:23:28.396Z,11.79
2022-09-04T19:26:01.786Z,11.76
2022-09-04T19:28:52.548Z,11.48
2022-09-04T19:31:33.048Z,11.70
2022-09-04T19:34:11.107Z,11.66
2022-09-04T19:36:45.912Z,11.61
2022-09-04T19:46:05.417Z,10.93
2022-09-04T19:46:11.289Z,11.07
2022-09-04T19:46:18.861Z,11.02
2022-09-04T19:48:32.576Z,10.69
2022-09-04T19:53:34.441Z,11.36
2022-09-04T19:54:03.975Z,11.32
2022-09-04T19:57:31.612Z,10.73
2022-09-04T19:59:43.444Z,10.91
2022-09-04T20:02:23.623Z,10.59
2022-09-04T20:04:58.488Z,10.64
2022-09-04T20:07:41.158Z,10.54
2022-09-04T20:10:21.566Z,10.84
2022-09-04T20:13:03.906Z,10.41
2022-09-04T20:15:36.478Z,10.85
2022-09-04T20:18:12.148Z,10.37
2022-09-04T20:20:56.753Z,10.09
2022-09-04T20:23:34.629Z,10.70
2022-09-04T20:26:10.591Z,10.22
2022-09-04T20:28:54.645Z,10.18
2022-09-04T20:31:45.467Z,10.53
2022-09-04T20:34:33.487Z,9.65
2022-09-04T20:37:33.965Z,9.97
2022-09-04T20:40:19.669Z,9.91
2022-09-04T20:43:09.902Z,10.01
2022-09-04T20:47:39.657Z,9.76
2022-09-04T20:52:53.513Z,9.64
2022-09-04T20:52:58.240Z,10.08
2022-09-04T20:54:57.715Z,9.58
2022-09-04T21:01:27.956Z,9.96
2022-09-04T21:03:20.723Z,8.99
2022-09-04T21:03:34.749Z,9.42
2022-09-04T21:06:17.149Z,9.19
2022-09-04T21:08:58.971Z,9.52
2022-09-04T21:11:40.815Z,9.45
2022-09-04T21:14:18.372Z,9.91
2022-09-04T21:17:34.629Z,9.94
2022-09-04T21:20:21.185Z,9.88
2022-09-04T21:23:10.471Z,10.03
2022-09-04T21:25:51.631Z,9.34
2022-09-04T21:29:11.040Z,9.90
2022-09-04T21:32:15.410Z,9.60
2022-09-04T21:35:03.689Z,10.12
2022-09-04T21:37:44.018Z,9.57
2022-09-04T21:40:51.435Z,10.00
2022-09-04T21:43:58.630Z,9.52
2022-09-04T21:47:08.401Z,9.91
2022-09-04T21:50:25.546Z,10.35
2022-09-04T21:53:18.399Z,10.29
2022-09-04T22:02:25.104Z,10.24
2022-09-04T22:02:29.145Z,9.91
2022-09-04T22:02:51.456Z,9.97
2022-09-04T22:05:27.690Z,10.53
2022-09-04T22:12:05.045Z,10.51
2022-09-04T22:13:30.493Z,10.47
2022-09-04T22:14:20.145Z,10.02
2022-09-04T22:17:22.891Z,9.65
2022-09-04T22:20:36.505Z,10.45
2022-09-04T22:23:46.191Z,10.38
2022-09-04T22:26:38.431Z,10.14
2022-09-04T22:29:30.325Z,9.56
2022-09-04T22:32:33.399Z,9.55
2022-09-04T22:35:38.119Z,9.96
2022-09-04T22:38:41.051Z,9.86
2022-09-04T22:41:30.536Z,9.35
2022-09-04T22:44:12.586Z,9.55
2022-09-04T22:47:28.663Z,9.23
2022-09-04T22:50:50.344Z,9.12
2022-09-04T22:53:55.524Z,8.73
2022-09-04T22:56:38.200Z,9.39
2022-09-04T22:59:28.105Z,9.34
2022-09-04T23:05:52.829Z,9.07
2022-09-04T23:14:03.083Z,9.38
2022-09-04T23:15:08.327Z,9.63
2022-09-04T23:20:41.126Z,9.24
2022-09-04T23:26:38.021Z,9.24
2022-09-04T23:26:43.579Z,10.00
2022-09-04T23:27:34.260Z,9.60
2022-09-04T23:30:25.802Z,10.11
2022-09-04T23:33:43.068Z,10.11
2022-09-04T23:36:50.445Z,10.09
2022-09-04T23:40:07.937Z,9.96
2022-09-04T23:43:00.452Z,10.07
2022-09-04T23:46:01.434Z,9.61
2022-09-04T23:49:13.109Z,9.87
2022-09-04T23:51:52.449Z,10.10
2022-09-04T23:54:42.737Z,10.04
2022-09-04T23:57:26.579Z,10.14
